Rick Pumphrey — WDF8497 — position and weather

sailwx.info

Track history (hours):
 
Tides and Currents Weather Stations Pressure Air Temp Water Temp Dewpoint Dewpoint Depression Visibility Wind Speed Wind Dir Waves Ship Positions

Rick Pumphrey

Owner: Blessey Enterprises, Inc., Harahan, LA. More information available from US FCC via Universal Licensing System and Coast Guard Vessel Documentation Center.

Last reported at 2017-Nov-19 13:41 UTC. Time now 2017-Nov-19 21:57 UTC.
Position N 29°43' W 095°01'.

; draft 2.4 m.

Type: Tug. MMSI: 367495480.

Date/timePositionNaut miles runAvg speedWind from/ knotsBaromVisibWave heightAir tempDewpointWater temp
2017-Nov-19 13:41N 29°43' W 095°01'1 5.2
2017-Nov-19 13:29N 29°42' W 095°02'0 0.0
2017-Nov-19 07:14N 29°42' W 095°02'0 0.0
2017-Nov-19 01:10N 29°42' W 095°02'0 0.0
2017-Nov-19 00:59N 29°42' W 095°02'0 0.0
2017-Nov-19 00:20N 29°42' W 095°02'0 0.0
2017-Nov-18 23:26N 29°42' W 095°02'0 0.0
2017-Nov-18 22:51N 29°42' W 095°02'0 0.0
2017-Nov-18 22:09N 29°42' W 095°02'0 0.0
2017-Nov-18 21:56N 29°42' W 095°02'0 0.0
2017-Nov-18 21:20N 29°42' W 095°02'0 0.0
2017-Nov-18 20:49N 29°42' W 095°02'0 0.0
2017-Nov-18 19:39N 29°42' W 095°02'0 0.0
2017-Nov-18 19:29N 29°42' W 095°02'0 0.0
2017-Nov-18 17:38N 29°42' W 095°02'0 0.0
2017-Nov-18 17:28N 29°42' W 095°02'0 0.0
2017-Nov-18 16:58N 29°42' W 095°02'0 0.0
2017-Nov-18 16:26N 29°42' W 095°02'0 0.0
2017-Nov-18 15:27N 29°42' W 095°02'0 0.0
2017-Nov-18 15:00N 29°42' W 095°02'0 0.0
2017-Nov-18 14:27N 29°42' W 095°02'0 0.0
2017-Nov-18 13:32N 29°42' W 095°02'0 0.7
2017-Nov-18 13:30N 29°42' W 095°02'3 4.4
2017-Nov-18 12:56N 29°42' W 094°60'3 6.7
2017-Nov-18 12:27N 29°39' W 094°58'2 4.6
2017-Nov-18 12:00N 29°37' W 094°59'2 5.0
2017-Nov-18 11:30N 29°37' W 095°01'0 0.2
2017-Nov-18 11:00N 29°37' W 095°01'0 0.0
2017-Nov-18 10:30N 29°37' W 095°01'0 0.0
2017-Nov-18 10:00N 29°37' W 095°01'0 0.0
2017-Nov-18 09:30N 29°37' W 095°01'0 0.0
2017-Nov-18 09:00N 29°37' W 095°01'0 0.0
2017-Nov-18 08:30N 29°37' W 095°01'0 0.0
2017-Nov-18 08:00N 29°37' W 095°01'0 0.0
2017-Nov-18 07:30N 29°37' W 095°01'0 0.0
2017-Nov-18 07:00N 29°37' W 095°01'0 0.0
2017-Nov-18 06:30N 29°37' W 095°01'0 0.0
2017-Nov-18 06:00N 29°37' W 095°01'0 0.0
2017-Nov-18 05:30N 29°37' W 095°01'0 0.0
2017-Nov-18 05:00N 29°37' W 095°01'0 0.0
2017-Nov-18 04:30N 29°37' W 095°01'0 0.0
2017-Nov-18 04:00N 29°37' W 095°01'0 0.0
2017-Nov-18 03:30N 29°37' W 095°01'0 0.0
2017-Nov-18 03:00N 29°37' W 095°01'0 0.0
2017-Nov-18 02:30N 29°37' W 095°01'0 0.0
2017-Nov-18 02:00N 29°37' W 095°01'0 0.0
2017-Nov-18 01:30N 29°37' W 095°01'0 0.0
2017-Nov-18 01:00N 29°37' W 095°01'0 0.0
2017-Nov-18 00:30N 29°37' W 095°01'0 0.0
2017-Nov-18 00:00N 29°37' W 095°01'0 0.5
2017-Nov-17 23:31N 29°37' W 095°01'0 0.7
2017-Nov-17 23:00N 29°36' W 095°01'0 0.0
2017-Nov-17 22:30N 29°36' W 095°01'0 0.0
2017-Nov-17 22:00N 29°36' W 095°01'0 0.0
2017-Nov-17 21:28N 29°36' W 095°01'0 0.0
2017-Nov-17 21:00N 29°36' W 095°01'0 0.0
2017-Nov-17 20:29N 29°36' W 095°01'0 0.0
2017-Nov-17 20:00N 29°36' W 095°01'0 0.0
2017-Nov-17 19:30N 29°36' W 095°01'0 0.0
2017-Nov-17 19:00N 29°36' W 095°01'0 0.0
2017-Nov-17 18:30N 29°36' W 095°01'0 0.0
2017-Nov-17 18:00N 29°36' W 095°01'0 0.0
2017-Nov-17 17:30N 29°36' W 095°01'0 0.0
2017-Nov-17 17:00N 29°36' W 095°01'0 0.0
2017-Nov-17 16:30N 29°36' W 095°01'0 0.0
2017-Nov-17 16:00N 29°36' W 095°01'0 0.0
2017-Nov-17 15:30N 29°36' W 095°01'0 0.0
2017-Nov-17 15:00N 29°36' W 095°01'0 0.0
2017-Nov-17 14:30N 29°36' W 095°01'0 0.0
2017-Nov-17 14:00N 29°36' W 095°01'0 0.0
2017-Nov-17 13:29N 29°36' W 095°01'0 0.0
2017-Nov-17 13:00N 29°36' W 095°01'0 0.0
2017-Nov-17 12:30N 29°36' W 095°01'0 0.0
2017-Nov-17 12:00N 29°36' W 095°01'0 0.1
2017-Nov-17 11:30N 29°36' W 095°01'1 2.1
2017-Nov-17 11:00N 29°37' W 094°60'2 4.7
2017-Nov-17 10:30N 29°38' W 094°58'4 7.3
2017-Nov-17 10:00N 29°42' W 094°60'3 6.0
2017-Nov-17 09:28N 29°44' W 095°02'1 0.1
2017-Nov-16 19:46N 29°43' W 095°01'1 3.9
2017-Nov-16 19:30N 29°42' W 095°02'0 0.5
2017-Nov-16 18:59N 29°42' W 095°02'0 0.0
2017-Nov-16 18:29N 29°42' W 095°02'0 0.0
2017-Nov-16 17:27N 29°42' W 095°02'0 0.0
2017-Nov-16 17:00N 29°42' W 095°02'0 0.0
2017-Nov-16 16:29N 29°42' W 095°02'0 0.0
2017-Nov-16 16:00N 29°42' W 095°02'0 0.0
2017-Nov-16 15:28N 29°42' W 095°02'0 0.0
2017-Nov-16 14:58N 29°42' W 095°02'0 0.0
2017-Nov-16 14:29N 29°42' W 095°02'0 0.0
2017-Nov-16 13:56N 29°42' W 095°02'0 0.0
2017-Nov-16 13:30N 29°42' W 095°02'0 0.0
2017-Nov-16 13:00N 29°42' W 095°02'0 0.0
2017-Nov-16 12:30N 29°42' W 095°02'0 0.0
2017-Nov-16 11:56N 29°42' W 095°02'0 0.0
2017-Nov-16 11:23N 29°42' W 095°02'0 0.0
2017-Nov-16 10:29N 29°42' W 095°02'0 0.0
2017-Nov-16 09:58N 29°42' W 095°02'0 0.0
2017-Nov-16 09:27N 29°42' W 095°02'0 0.0
2017-Nov-16 08:35N 29°42' W 095°02'0 0.0
2017-Nov-16 08:27N 29°42' W 095°02'0 0.0
2017-Nov-16 07:55N 29°42' W 095°02'0 0.0
2017-Nov-16 07:30N 29°42' W 095°02'0 0.0
2017-Nov-16 06:58N 29°42' W 095°02'0 0.0
2017-Nov-16 01:44N 29°42' W 095°02'0 0.5
2017-Nov-16 01:30N 29°42' W 095°02'1 2.8
2017-Nov-16 01:00N 29°44' W 095°02'3 0.4
2017-Nov-15 17:22N 29°45' W 095°06'5 0.2
2017-Nov-14 18:49N 29°43' W 095°01'1 0.2
2017-Nov-14 13:15N 29°42' W 095°02'0 0.0
2017-Nov-14 12:59N 29°42' W 095°02'0 0.0
2017-Nov-14 12:29N 29°42' W 095°02'0 0.0
2017-Nov-14 12:00N 29°42' W 095°02'0 0.0
2017-Nov-14 11:30N 29°42' W 095°02'0 0.0
2017-Nov-14 11:00N 29°42' W 095°02'0 0.0
2017-Nov-14 10:29N 29°42' W 095°02'0 0.0
2017-Nov-14 10:00N 29°42' W 095°02'0 0.0
2017-Nov-14 09:29N 29°42' W 095°02'0 0.0
2017-Nov-14 08:59N 29°42' W 095°02'0 0.0
2017-Nov-14 08:30N 29°42' W 095°02'0 0.0
2017-Nov-14 07:59N 29°42' W 095°02'0 0.0
2017-Nov-14 07:30N 29°42' W 095°02'0 0.0
2017-Nov-14 06:58N 29°42' W 095°02'0 0.0
2017-Nov-14 06:24N 29°42' W 095°02'0 0.0
2017-Nov-14 06:00N 29°42' W 095°02'0 0.0
2017-Nov-14 05:30N 29°42' W 095°02'0 0.0
2017-Nov-14 04:58N 29°42' W 095°02'0 0.0
2017-Nov-14 04:30N 29°42' W 095°02'0 0.0
2017-Nov-14 04:00N 29°42' W 095°02'0 0.0
2017-Nov-14 03:28N 29°42' W 095°02'0 0.0
2017-Nov-14 02:57N 29°42' W 095°02'0 0.0
2017-Nov-14 02:26N 29°42' W 095°02'0 0.0
2017-Nov-14 01:53N 29°42' W 095°02'0 0.0
2017-Nov-14 01:30N 29°42' W 095°02'0 0.0
2017-Nov-14 00:58N 29°42' W 095°02'0 0.0
2017-Nov-14 00:24N 29°42' W 095°02'2 2.8
2017-Nov-13 23:51N 29°44' W 095°02'4 0.2
2017-Nov-13 02:00N 29°47' W 095°05'0 0.1
2017-Nov-13 01:30N 29°47' W 095°05'0 0.0
2017-Nov-12 09:23N 29°47' W 095°05'5 2.0
2017-Nov-12 06:46N 29°43' W 095°01'1 3.7
2017-Nov-12 06:30N 29°42' W 095°02'0 0.9
2017-Nov-12 06:00N 29°42' W 095°02'0 0.0
2017-Nov-12 05:30N 29°42' W 095°02'0 0.0
2017-Nov-12 05:00N 29°42' W 095°02'0 0.0
2017-Nov-12 04:30N 29°42' W 095°02'0 0.0
2017-Nov-12 04:00N 29°42' W 095°02'0 0.0
2017-Nov-12 03:26N 29°42' W 095°02'0 0.0
2017-Nov-12 02:59N 29°42' W 095°02'0 0.0
2017-Nov-12 02:29N 29°42' W 095°02'0 0.0
2017-Nov-12 01:59N 29°42' W 095°02'0 0.0
2017-Nov-12 01:26N 29°42' W 095°02'0 0.0
2017-Nov-12 00:51N 29°42' W 095°02'0 0.0
2017-Nov-12 00:30N 29°42' W 095°02'0 0.0
2017-Nov-12 00:00N 29°42' W 095°02'0 0.0
2017-Nov-11 23:29N 29°42' W 095°02'0 0.0
2017-Nov-11 22:59N 29°42' W 095°02'0 0.0
2017-Nov-11 22:30N 29°42' W 095°02'0 0.0
2017-Nov-11 21:59N 29°42' W 095°02'0 0.0
2017-Nov-11 21:29N 29°42' W 095°02'1 2.0
2017-Nov-11 20:58N 29°42' W 095°01'3 6.3
2017-Nov-11 20:30N 29°40' W 094°59'4 6.8
2017-Nov-11 19:59N 29°37' W 094°58'3 6.8
2017-Nov-11 19:30N 29°37' W 095°01'0 0.5
2017-Nov-11 19:00N 29°37' W 095°01'0 0.0
2017-Nov-11 18:30N 29°37' W 095°01'0 0.0
2017-Nov-11 18:00N 29°37' W 095°01'0 0.0
2017-Nov-11 17:30N 29°37' W 095°01'0 0.0
2017-Nov-11 17:00N 29°37' W 095°01'0 0.0
2017-Nov-11 16:30N 29°37' W 095°01'0 0.0
2017-Nov-11 16:00N 29°37' W 095°01'0 0.0
2017-Nov-11 15:30N 29°37' W 095°01'0 0.0
2017-Nov-11 15:00N 29°37' W 095°01'0 0.0
2017-Nov-11 14:30N 29°37' W 095°01'0 0.0
2017-Nov-11 14:00N 29°37' W 095°01'0 0.0
2017-Nov-11 13:30N 29°37' W 095°01'0 0.0
2017-Nov-11 13:00N 29°37' W 095°01'0 0.0
2017-Nov-11 12:30N 29°37' W 095°01'0 0.0
2017-Nov-11 12:00N 29°37' W 095°01'0 0.0
2017-Nov-11 11:30N 29°37' W 095°01'0 0.0
2017-Nov-11 11:00N 29°37' W 095°01'0 0.0
2017-Nov-11 10:30N 29°37' W 095°01'0 0.0
2017-Nov-11 10:00N 29°37' W 095°01'0 0.0
2017-Nov-11 09:30N 29°37' W 095°01'0 0.0
2017-Nov-11 09:00N 29°37' W 095°01'0 0.0
2017-Nov-11 08:30N 29°37' W 095°01'0 0.0
2017-Nov-11 08:00N 29°37' W 095°01'0 0.0
2017-Nov-11 07:30N 29°37' W 095°01'0 0.0
2017-Nov-11 07:00N 29°37' W 095°01'0 0.0
2017-Nov-11 06:30N 29°37' W 095°01'0 0.0
2017-Nov-11 06:00N 29°37' W 095°01'0 0.0
2017-Nov-11 05:30N 29°37' W 095°01'0 0.0
2017-Nov-11 05:00N 29°37' W 095°01'3 6.9
2017-Nov-11 04:30N 29°37' W 094°58'4 7.3
2017-Nov-11 04:00N 29°41' W 094°59'4 7.0
2017-Nov-11 03:27N 29°44' W 095°02'1 0.1
2017-Nov-10 17:15N 29°44' W 095°03'0 0.1
2017-Nov-10 17:01N 29°44' W 095°03'0 0.0
2017-Nov-10 16:30N 29°44' W 095°03'0 0.0
2017-Nov-10 16:00N 29°44' W 095°03'0 0.4
2017-Nov-10 15:30N 29°44' W 095°03'0 0.2
2017-Nov-10 14:58N 29°44' W 095°03'4 0.1
2017-Nov-09 14:40N 29°47' W 095°05'  
Track history (hours):
 
Tides and Currents Weather Stations Pressure Air Temp Water Temp Dewpoint Dewpoint Depression Visibility Wind Speed Wind Dir Waves Ship Positions

Rick Pumphrey

Owner: Blessey Enterprises, Inc., Harahan, LA. More information available from US FCC via Universal Licensing System and Coast Guard Vessel Documentation Center.

Last reported at 2017-Nov-19 13:41 UTC. Time now 2017-Nov-19 21:57 UTC.
Position N 29°43' W 095°01'.

; draft 2.4 m.

Type: Tug. MMSI: 367495480.

Date/timePositionNaut miles runAvg speedWind from/ knotsBaromVisibWave heightAir tempDewpointWater temp
2017-Nov-19 13:41N 29°43' W 095°01'1 5.2
2017-Nov-19 13:29N 29°42' W 095°02'0 0.0
2017-Nov-19 07:14N 29°42' W 095°02'0 0.0
2017-Nov-19 01:10N 29°42' W 095°02'0 0.0
2017-Nov-19 00:59N 29°42' W 095°02'0 0.0
2017-Nov-19 00:20N 29°42' W 095°02'0 0.0
2017-Nov-18 23:26N 29°42' W 095°02'0 0.0
2017-Nov-18 22:51N 29°42' W 095°02'0 0.0
2017-Nov-18 22:09N 29°42' W 095°02'0 0.0
2017-Nov-18 21:56N 29°42' W 095°02'0 0.0
2017-Nov-18 21:20N 29°42' W 095°02'0 0.0
2017-Nov-18 20:49N 29°42' W 095°02'0 0.0
2017-Nov-18 19:39N 29°42' W 095°02'0 0.0
2017-Nov-18 19:29N 29°42' W 095°02'0 0.0
2017-Nov-18 17:38N 29°42' W 095°02'0 0.0
2017-Nov-18 17:28N 29°42' W 095°02'0 0.0
2017-Nov-18 16:58N 29°42' W 095°02'0 0.0
2017-Nov-18 16:26N 29°42' W 095°02'0 0.0
2017-Nov-18 15:27N 29°42' W 095°02'0 0.0
2017-Nov-18 15:00N 29°42' W 095°02'0 0.0
2017-Nov-18 14:27N 29°42' W 095°02'0 0.0
2017-Nov-18 13:32N 29°42' W 095°02'0 0.7
2017-Nov-18 13:30N 29°42' W 095°02'3 4.4
2017-Nov-18 12:56N 29°42' W 094°60'3 6.7
2017-Nov-18 12:27N 29°39' W 094°58'2 4.6
2017-Nov-18 12:00N 29°37' W 094°59'2 5.0
2017-Nov-18 11:30N 29°37' W 095°01'0 0.2
2017-Nov-18 11:00N 29°37' W 095°01'0 0.0
2017-Nov-18 10:30N 29°37' W 095°01'0 0.0
2017-Nov-18 10:00N 29°37' W 095°01'0 0.0
2017-Nov-18 09:30N 29°37' W 095°01'0 0.0
2017-Nov-18 09:00N 29°37' W 095°01'0 0.0
2017-Nov-18 08:30N 29°37' W 095°01'0 0.0
2017-Nov-18 08:00N 29°37' W 095°01'0 0.0
2017-Nov-18 07:30N 29°37' W 095°01'0 0.0
2017-Nov-18 07:00N 29°37' W 095°01'0 0.0
2017-Nov-18 06:30N 29°37' W 095°01'0 0.0
2017-Nov-18 06:00N 29°37' W 095°01'0 0.0
2017-Nov-18 05:30N 29°37' W 095°01'0 0.0
2017-Nov-18 05:00N 29°37' W 095°01'0 0.0
2017-Nov-18 04:30N 29°37' W 095°01'0 0.0
2017-Nov-18 04:00N 29°37' W 095°01'0 0.0
2017-Nov-18 03:30N 29°37' W 095°01'0 0.0
2017-Nov-18 03:00N 29°37' W 095°01'0 0.0
2017-Nov-18 02:30N 29°37' W 095°01'0 0.0
2017-Nov-18 02:00N 29°37' W 095°01'0 0.0
2017-Nov-18 01:30N 29°37' W 095°01'0 0.0
2017-Nov-18 01:00N 29°37' W 095°01'0 0.0
2017-Nov-18 00:30N 29°37' W 095°01'0 0.0
2017-Nov-18 00:00N 29°37' W 095°01'0 0.5
2017-Nov-17 23:31N 29°37' W 095°01'0 0.7
2017-Nov-17 23:00N 29°36' W 095°01'0 0.0
2017-Nov-17 22:30N 29°36' W 095°01'0 0.0
2017-Nov-17 22:00N 29°36' W 095°01'0 0.0
2017-Nov-17 21:28N 29°36' W 095°01'0 0.0
2017-Nov-17 21:00N 29°36' W 095°01'0 0.0
2017-Nov-17 20:29N 29°36' W 095°01'0 0.0
2017-Nov-17 20:00N 29°36' W 095°01'0 0.0
2017-Nov-17 19:30N 29°36' W 095°01'0 0.0
2017-Nov-17 19:00N 29°36' W 095°01'0 0.0
2017-Nov-17 18:30N 29°36' W 095°01'0 0.0
2017-Nov-17 18:00N 29°36' W 095°01'0 0.0
2017-Nov-17 17:30N 29°36' W 095°01'0 0.0
2017-Nov-17 17:00N 29°36' W 095°01'0 0.0
2017-Nov-17 16:30N 29°36' W 095°01'0 0.0
2017-Nov-17 16:00N 29°36' W 095°01'0 0.0
2017-Nov-17 15:30N 29°36' W 095°01'0 0.0
2017-Nov-17 15:00N 29°36' W 095°01'0 0.0
2017-Nov-17 14:30N 29°36' W 095°01'0 0.0
2017-Nov-17 14:00N 29°36' W 095°01'0 0.0
2017-Nov-17 13:29N 29°36' W 095°01'0 0.0
2017-Nov-17 13:00N 29°36' W 095°01'0 0.0
2017-Nov-17 12:30N 29°36' W 095°01'0 0.0
2017-Nov-17 12:00N 29°36' W 095°01'0 0.1
2017-Nov-17 11:30N 29°36' W 095°01'1 2.1
2017-Nov-17 11:00N 29°37' W 094°60'2 4.7
2017-Nov-17 10:30N 29°38' W 094°58'4 7.3
2017-Nov-17 10:00N 29°42' W 094°60'3 6.0
2017-Nov-17 09:28N 29°44' W 095°02'1 0.1
2017-Nov-16 19:46N 29°43' W 095°01'1 3.9
2017-Nov-16 19:30N 29°42' W 095°02'0 0.5
2017-Nov-16 18:59N 29°42' W 095°02'0 0.0
2017-Nov-16 18:29N 29°42' W 095°02'0 0.0
2017-Nov-16 17:27N 29°42' W 095°02'0 0.0
2017-Nov-16 17:00N 29°42' W 095°02'0 0.0
2017-Nov-16 16:29N 29°42' W 095°02'0 0.0
2017-Nov-16 16:00N 29°42' W 095°02'0 0.0
2017-Nov-16 15:28N 29°42' W 095°02'0 0.0
2017-Nov-16 14:58N 29°42' W 095°02'0 0.0
2017-Nov-16 14:29N 29°42' W 095°02'0 0.0
2017-Nov-16 13:56N 29°42' W 095°02'0 0.0
2017-Nov-16 13:30N 29°42' W 095°02'0 0.0
2017-Nov-16 13:00N 29°42' W 095°02'0 0.0
2017-Nov-16 12:30N 29°42' W 095°02'0 0.0
2017-Nov-16 11:56N 29°42' W 095°02'0 0.0
2017-Nov-16 11:23N 29°42' W 095°02'0 0.0
2017-Nov-16 10:29N 29°42' W 095°02'0 0.0
2017-Nov-16 09:58N 29°42' W 095°02'0 0.0
2017-Nov-16 09:27N 29°42' W 095°02'0 0.0
2017-Nov-16 08:35N 29°42' W 095°02'0 0.0
2017-Nov-16 08:27N 29°42' W 095°02'0 0.0
2017-Nov-16 07:55N 29°42' W 095°02'0 0.0
2017-Nov-16 07:30N 29°42' W 095°02'0 0.0
2017-Nov-16 06:58N 29°42' W 095°02'0 0.0
2017-Nov-16 01:44N 29°42' W 095°02'0 0.5
2017-Nov-16 01:30N 29°42' W 095°02'1 2.8
2017-Nov-16 01:00N 29°44' W 095°02'3 0.4
2017-Nov-15 17:22N 29°45' W 095°06'5 0.2
2017-Nov-14 18:49N 29°43' W 095°01'1 0.2
2017-Nov-14 13:15N 29°42' W 095°02'0 0.0
2017-Nov-14 12:59N 29°42' W 095°02'0 0.0
2017-Nov-14 12:29N 29°42' W 095°02'0 0.0
2017-Nov-14 12:00N 29°42' W 095°02'0 0.0
2017-Nov-14 11:30N 29°42' W 095°02'0 0.0
2017-Nov-14 11:00N 29°42' W 095°02'0 0.0
2017-Nov-14 10:29N 29°42' W 095°02'0 0.0
2017-Nov-14 10:00N 29°42' W 095°02'0 0.0
2017-Nov-14 09:29N 29°42' W 095°02'0 0.0
2017-Nov-14 08:59N 29°42' W 095°02'0 0.0
2017-Nov-14 08:30N 29°42' W 095°02'0 0.0
2017-Nov-14 07:59N 29°42' W 095°02'0 0.0
2017-Nov-14 07:30N 29°42' W 095°02'0 0.0
2017-Nov-14 06:58N 29°42' W 095°02'0 0.0
2017-Nov-14 06:24N 29°42' W 095°02'0 0.0
2017-Nov-14 06:00N 29°42' W 095°02'0 0.0
2017-Nov-14 05:30N 29°42' W 095°02'0 0.0
2017-Nov-14 04:58N 29°42' W 095°02'0 0.0
2017-Nov-14 04:30N 29°42' W 095°02'0 0.0
2017-Nov-14 04:00N 29°42' W 095°02'0 0.0
2017-Nov-14 03:28N 29°42' W 095°02'0 0.0
2017-Nov-14 02:57N 29°42' W 095°02'0 0.0
2017-Nov-14 02:26N 29°42' W 095°02'0 0.0
2017-Nov-14 01:53N 29°42' W 095°02'0 0.0
2017-Nov-14 01:30N 29°42' W 095°02'0 0.0
2017-Nov-14 00:58N 29°42' W 095°02'0 0.0
2017-Nov-14 00:24N 29°42' W 095°02'2 2.8
2017-Nov-13 23:51N 29°44' W 095°02'4 0.2
2017-Nov-13 02:00N 29°47' W 095°05'0 0.1
2017-Nov-13 01:30N 29°47' W 095°05'0 0.0
2017-Nov-12 09:23N 29°47' W 095°05'5 2.0
2017-Nov-12 06:46N 29°43' W 095°01'1 3.7
2017-Nov-12 06:30N 29°42' W 095°02'0 0.9
2017-Nov-12 06:00N 29°42' W 095°02'0 0.0
2017-Nov-12 05:30N 29°42' W 095°02'0 0.0
2017-Nov-12 05:00N 29°42' W 095°02'0 0.0
2017-Nov-12 04:30N 29°42' W 095°02'0 0.0
2017-Nov-12 04:00N 29°42' W 095°02'0 0.0
2017-Nov-12 03:26N 29°42' W 095°02'0 0.0
2017-Nov-12 02:59N 29°42' W 095°02'0 0.0
2017-Nov-12 02:29N 29°42' W 095°02'0 0.0
2017-Nov-12 01:59N 29°42' W 095°02'0 0.0
2017-Nov-12 01:26N 29°42' W 095°02'0 0.0
2017-Nov-12 00:51N 29°42' W 095°02'0 0.0
2017-Nov-12 00:30N 29°42' W 095°02'0 0.0
2017-Nov-12 00:00N 29°42' W 095°02'0 0.0
2017-Nov-11 23:29N 29°42' W 095°02'0 0.0
2017-Nov-11 22:59N 29°42' W 095°02'0 0.0
2017-Nov-11 22:30N 29°42' W 095°02'0 0.0
2017-Nov-11 21:59N 29°42' W 095°02'0 0.0
2017-Nov-11 21:29N 29°42' W 095°02'1 2.0
2017-Nov-11 20:58N 29°42' W 095°01'3 6.3
2017-Nov-11 20:30N 29°40' W 094°59'4 6.8
2017-Nov-11 19:59N 29°37' W 094°58'3 6.8
2017-Nov-11 19:30N 29°37' W 095°01'0 0.5
2017-Nov-11 19:00N 29°37' W 095°01'0 0.0
2017-Nov-11 18:30N 29°37' W 095°01'0 0.0
2017-Nov-11 18:00N 29°37' W 095°01'0 0.0
2017-Nov-11 17:30N 29°37' W 095°01'0 0.0
2017-Nov-11 17:00N 29°37' W 095°01'0 0.0
2017-Nov-11 16:30N 29°37' W 095°01'0 0.0
2017-Nov-11 16:00N 29°37' W 095°01'0 0.0
2017-Nov-11 15:30N 29°37' W 095°01'0 0.0
2017-Nov-11 15:00N 29°37' W 095°01'0 0.0
2017-Nov-11 14:30N 29°37' W 095°01'0 0.0
2017-Nov-11 14:00N 29°37' W 095°01'0 0.0
2017-Nov-11 13:30N 29°37' W 095°01'0 0.0
2017-Nov-11 13:00N 29°37' W 095°01'0 0.0
2017-Nov-11 12:30N 29°37' W 095°01'0 0.0
2017-Nov-11 12:00N 29°37' W 095°01'0 0.0
2017-Nov-11 11:30N 29°37' W 095°01'0 0.0
2017-Nov-11 11:00N 29°37' W 095°01'0 0.0
2017-Nov-11 10:30N 29°37' W 095°01'0 0.0
2017-Nov-11 10:00N 29°37' W 095°01'0 0.0
2017-Nov-11 09:30N 29°37' W 095°01'0 0.0
2017-Nov-11 09:00N 29°37' W 095°01'0 0.0
2017-Nov-11 08:30N 29°37' W 095°01'0 0.0
2017-Nov-11 08:00N 29°37' W 095°01'0 0.0
2017-Nov-11 07:30N 29°37' W 095°01'0 0.0
2017-Nov-11 07:00N 29°37' W 095°01'0 0.0
2017-Nov-11 06:30N 29°37' W 095°01'0 0.0
2017-Nov-11 06:00N 29°37' W 095°01'0 0.0
2017-Nov-11 05:30N 29°37' W 095°01'0 0.0
2017-Nov-11 05:00N 29°37' W 095°01'3 6.9
2017-Nov-11 04:30N 29°37' W 094°58'4 7.3
2017-Nov-11 04:00N 29°41' W 094°59'4 7.0
2017-Nov-11 03:27N 29°44' W 095°02'1 0.1
2017-Nov-10 17:15N 29°44' W 095°03'0 0.1
2017-Nov-10 17:01N 29°44' W 095°03'0 0.0
2017-Nov-10 16:30N 29°44' W 095°03'0 0.0
2017-Nov-10 16:00N 29°44' W 095°03'0 0.4
2017-Nov-10 15:30N 29°44' W 095°03'0 0.2
2017-Nov-10 14:58N 29°44' W 095°03'4 0.1
2017-Nov-09 14:40N 29°47' W 095°05'  

Dump ship's entire track history